Time;durP1;ratioP1;P1;durP2;ratioP2;P2;SDS_P1;SDS_P2;PMS_P1;PMS_P2;Temp;Humidity;BMP_temperature;BMP_pressure;BME280_temperature;BME280_humidity;BME280_pressure;Samples;Min_cycle;Max_cycle;Signal;HPM_P1;HPM_P2
2023/05/11 00:01:41;;;;;;;7.75;4.05;;;;;;;23.27;45.32;101506.56;5069502;28;20029;-68
2023/05/11 00:04:07;;;;;;;8.98;3.92;;;;;;;23.32;45.42;101509.84;5071413;28;20024;-68
2023/05/11 00:06:33;;;;;;;8.55;4.00;;;;;;;24.08;43.44;101511.97;5071002;28;20026;-67
2023/05/11 00:08:58;;;;;;;11.10;4.25;;;;;;;24.15;43.24;101513.34;5072414;28;20107;-67
2023/05/11 00:11:23;;;;;;;9.70;4.47;;;;;;;23.25;45.13;101521.81;5071548;28;20328;-68
2023/05/11 00:13:49;;;;;;;8.98;4.15;;;;;;;22.96;46.14;101522.31;5063052;28;20488;-67
2023/05/11 00:16:14;;;;;;;10.90;4.00;;;;;;;23.14;45.71;101522.34;5050344;28;20139;-68
2023/05/11 00:18:40;;;;;;;8.15;3.75;;;;;;;22.89;46.21;101520.94;5051585;28;20025;-67
2023/05/11 00:21:05;;;;;;;7.70;3.63;;;;;;;22.19;47.30;101518.97;5052640;28;20025;-67
2023/05/11 00:23:30;;;;;;;8.13;3.65;;;;;;;23.59;44.68;101514.63;5052038;28;20442;-67
2023/05/11 00:25:56;;;;;;;10.90;3.78;;;;;;;23.25;45.48;101511.13;5057972;28;20039;-67
2023/05/11 00:28:22;;;;;;;10.05;5.47;;;;;;;23.23;45.45;101513.00;5061272;28;20033;-68
2023/05/11 00:30:47;;;;;;;11.23;4.57;;;;;;;23.21;45.48;101510.41;5051626;28;20385;-67
2023/05/11 00:33:13;;;;;;;8.75;4.28;;;;;;;23.21;45.90;101511.28;5052253;28;20033;-67
2023/05/11 00:35:38;;;;;;;7.10;4.05;;;;;;;23.19;45.27;101507.84;5050540;28;20439;-67
2023/05/11 00:38:07;;;;;;;9.38;4.25;;;;;;;23.51;44.92;101509.75;5051105;28;20052;-69
2023/05/11 00:40:32;;;;;;;10.65;3.83;;;;;;;23.45;45.27;101510.06;5050737;28;20029;-68
2023/05/11 00:42:58;;;;;;;10.23;3.83;;;;;;;23.96;44.10;101509.97;5049986;28;20031;-67
2023/05/11 00:45:23;;;;;;;7.65;3.30;;;;;;;24.07;43.90;101509.38;5050769;28;20497;-68
2023/05/11 00:47:49;;;;;;;11.07;4.53;;;;;;;23.77;44.08;101505.63;5051068;28;20017;-67
2023/05/11 00:50:17;;;;;;;8.95;3.80;;;;;;;24.25;43.08;101513.69;5049507;28;20449;-68
2023/05/11 00:52:43;;;;;;;8.88;4.05;;;;;;;23.29;45.20;101507.34;5052385;28;20092;-68
2023/05/11 00:55:10;;;;;;;8.07;3.70;;;;;;;23.76;44.14;101511.91;5049915;28;20094;-68
2023/05/11 00:57:37;;;;;;;6.47;3.15;;;;;;;23.80;44.12;101513.47;5068475;28;20039;-68
2023/05/11 01:00:03;;;;;;;7.78;3.50;;;;;;;23.72;44.16;101513.88;5070868;28;20452;-67
2023/05/11 01:02:29;;;;;;;6.75;3.25;;;;;;;24.26;43.42;101520.72;5069917;28;20151;-68
2023/05/11 01:04:55;;;;;;;9.95;3.88;;;;;;;24.36;43.32;101515.75;5069903;28;20103;-68
2023/05/11 01:07:23;;;;;;;8.20;3.70;;;;;;;23.49;44.58;101515.16;5054913;28;20047;-68
2023/05/11 01:10:33;;;;;;;10.30;3.50;;;;;;;24.29;43.13;101519.69;5050220;28;20192;-68
2023/05/11 01:13:21;;;;;;;6.68;3.10;;;;;;;24.32;43.14;101508.88;5049556;28;20053;-70
2023/05/11 01:15:51;;;;;;;8.88;3.75;;;;;;;23.92;44.42;101511.09;5050184;28;20404;-68
2023/05/11 01:18:38;;;;;;;10.77;4.05;;;;;;;24.18;43.51;101518.50;5069411;28;20036;-69
2023/05/11 01:21:08;;;;;;;10.45;4.03;;;;;;;23.63;44.44;101510.84;5070388;28;20498;-68
2023/05/11 01:23:48;;;;;;;10.07;4.32;;;;;;;23.26;44.87;101511.03;5070450;28;20028;-68
2023/05/11 01:26:20;;;;;;;10.57;4.05;;;;;;;23.01;45.83;101519.41;5067447;28;20020;-67
2023/05/11 01:29:02;;;;;;;10.18;4.40;;;;;;;23.45;44.86;101518.94;5050831;28;20033;-68
2023/05/11 01:31:33;;;;;;;11.65;4.95;;;;;;;23.18;45.64;101516.78;5049848;28;20071;-68
2023/05/11 01:34:03;;;;;;;11.23;4.90;;;;;;;23.42;44.64;101519.06;5050786;28;20610;-68
2023/05/11 01:36:37;;;;;;;9.77;3.95;;;;;;;23.31;45.12;101516.97;5049839;28;20029;-68
2023/05/11 01:39:09;;;;;;;9.60;3.83;;;;;;;23.54;45.02;101507.75;5049301;28;20119;-68
2023/05/11 01:41:38;;;;;;;10.85;4.63;;;;;;;22.97;45.44;101512.50;5050185;28;20090;-68
2023/05/11 01:44:09;;;;;;;11.05;4.32;;;;;;;23.67;44.44;101509.75;5050050;28;20029;-68
2023/05/11 01:46:35;;;;;;;9.05;4.25;;;;;;;23.30;45.29;101507.28;5049213;28;20425;-68
2023/05/11 01:49:06;;;;;;;8.55;4.45;;;;;;;23.16;45.73;101510.69;5051510;28;20021;-68
2023/05/11 01:51:42;;;;;;;11.25;4.28;;;;;;;23.29;45.65;101518.88;5049776;28;20029;-67
2023/05/11 01:54:10;;;;;;;11.00;5.28;;;;;;;23.32;45.36;101517.84;5048379;28;20067;-68
2023/05/11 01:56:37;;;;;;;11.95;4.93;;;;;;;23.40;45.47;101520.97;5049863;28;20083;-67
2023/05/11 01:59:06;;;;;;;9.27;4.57;;;;;;;23.38;45.23;101523.72;5049716;28;20127;-68
2023/05/11 02:01:37;;;;;;;13.80;5.13;;;;;;;23.17;45.67;101523.03;5050336;28;20121;-68
2023/05/11 02:04:04;;;;;;;11.77;4.82;;;;;;;23.26;46.20;101524.38;5065473;28;20139;-68
2023/05/11 02:06:33;;;;;;;11.73;5.40;;;;;;;23.23;45.92;101521.00;5058137;28;20039;-68
2023/05/11 02:09:00;;;;;;;9.52;4.80;;;;;;;23.92;44.23;101521.78;5048891;28;20024;-67
2023/05/11 02:11:26;;;;;;;13.07;4.65;;;;;;;23.52;45.08;101533.66;5050489;28;20469;-67
2023/05/11 02:13:55;;;;;;;7.72;3.63;;;;;;;23.90;44.54;101526.34;5065793;28;20111;-68
2023/05/11 02:16:22;;;;;;;4.35;3.20;;;;;;;24.06;43.39;101524.53;5068971;28;20028;-68
2023/05/11 02:18:48;;;;;;;12.57;4.93;;;;;;;23.38;45.36;101528.19;5069512;28;20423;-68
2023/05/11 02:21:15;;;;;;;10.52;4.00;;;;;;;23.62;45.61;101528.69;5068085;28;20021;-67
2023/05/11 02:23:43;;;;;;;13.50;5.70;;;;;;;23.94;44.11;101525.22;5052623;28;20032;-68
2023/05/11 02:26:11;;;;;;;9.27;5.38;;;;;;;23.91;44.02;101525.41;5048633;28;20021;-67
2023/05/11 02:28:36;;;;;;;10.18;4.50;;;;;;;23.64;44.95;101531.25;5048351;28;20381;-68
2023/05/11 02:31:08;;;;;;;17.08;5.20;;;;;;;24.23;44.05;101536.94;5054032;28;20021;-68
2023/05/11 02:33:38;;;;;;;12.43;4.70;;;;;;;23.59;45.21;101525.31;5062515;28;20080;-68
2023/05/11 02:36:07;;;;;;;12.80;5.85;;;;;;;23.79;44.49;101532.25;5069481;28;20020;-67
2023/05/11 02:38:34;;;;;;;9.77;4.22;;;;;;;23.74;44.48;101528.97;5068924;28;20042;-68
2023/05/11 02:41:24;;;;;;;8.95;4.30;;;;;;;23.68;44.65;101524.81;5068835;28;20035;-68
2023/05/11 02:43:51;;;;;;;12.70;5.00;;;;;;;23.47;45.18;101522.38;5068248;28;20032;-68
2023/05/11 02:46:20;;;;;;;10.93;4.32;;;;;;;23.35;45.10;101523.03;5060664;28;20063;-68
2023/05/11 02:48:51;;;;;;;8.88;4.43;;;;;;;23.43;45.81;101531.47;5048989;28;20028;-68
2023/05/11 02:51:21;;;;;;;10.35;4.78;;;;;;;23.19;45.94;101529.16;5047615;28;20526;-68
2023/05/11 02:53:47;;;;;;;7.53;3.20;;;;;;;23.38;45.50;101522.84;5048639;28;20048;-68
2023/05/11 02:56:13;;;;;;;11.38;4.03;;;;;;;23.77;45.15;101524.31;5047607;28;20486;-68
2023/05/11 02:58:39;;;;;;;9.55;4.03;;;;;;;23.99;44.34;101523.19;5050001;28;20103;-68
2023/05/11 03:01:08;;;;;;;10.85;4.40;;;;;;;23.82;44.88;101522.28;5047971;28;20476;-67
2023/05/11 03:03:34;;;;;;;9.55;4.65;;;;;;;23.83;44.26;101533.78;5069039;28;20036;-68
2023/05/11 03:05:59;;;;;;;11.25;4.55;;;;;;;23.88;44.67;101526.44;5069912;28;20077;-68
2023/05/11 03:08:25;;;;;;;8.75;4.50;;;;;;;24.85;42.57;101528.94;5069709;28;20111;-67
2023/05/11 03:10:51;;;;;;;8.82;3.97;;;;;;;24.52;42.58;101521.94;5066705;28;20028;-68
2023/05/11 03:13:19;;;;;;;10.65;4.70;;;;;;;25.17;41.65;101523.47;5068232;28;20236;-68
2023/05/11 03:15:45;;;;;;;10.77;4.70;;;;;;;24.41;43.44;101524.34;5068513;28;20515;-68
2023/05/11 03:18:12;;;;;;;9.48;4.47;;;;;;;24.01;44.19;101521.25;5067347;28;20450;-68
2023/05/11 03:20:40;;;;;;;9.80;3.75;;;;;;;23.79;44.79;101522.41;5068619;28;20027;-67
2023/05/11 03:23:06;;;;;;;10.80;4.20;;;;;;;23.62;45.27;101520.69;5049952;28;20052;-67
2023/05/11 03:25:32;;;;;;;9.30;4.30;;;;;;;23.64;45.12;101523.25;5069287;28;20102;-68
2023/05/11 03:27:59;;;;;;;8.80;4.07;;;;;;;23.57;45.85;101524.53;5068682;28;20030;-67
2023/05/11 03:30:26;;;;;;;9.30;4.15;;;;;;;23.41;45.84;101521.81;5068142;28;20036;-68
2023/05/11 03:32:52;;;;;;;11.45;5.63;;;;;;;23.14;46.38;101520.53;5063233;28;20043;-68
2023/05/11 03:35:18;;;;;;;9.50;3.38;;;;;;;23.00;46.61;101520.38;5049322;28;20036;-67
2023/05/11 03:37:44;;;;;;;11.30;4.50;;;;;;;23.17;46.46;101522.19;5054642;28;20032;-67
2023/05/11 03:40:13;;;;;;;10.60;5.13;;;;;;;23.21;46.41;101511.28;5071441;28;20140;-68
2023/05/11 03:42:41;;;;;;;9.77;4.22;;;;;;;22.94;46.78;101513.53;5072612;28;20025;-67
2023/05/11 03:45:09;;;;;;;11.80;4.65;;;;;;;22.96;46.17;101516.16;5072305;28;20025;-67
2023/05/11 03:47:38;;;;;;;11.50;4.03;;;;;;;22.87;46.63;101513.00;5061060;28;20392;-67
2023/05/11 03:50:06;;;;;;;8.40;4.40;;;;;;;23.53;45.58;101513.16;5052574;28;20029;-68
2023/05/11 03:52:31;;;;;;;10.70;5.28;;;;;;;23.79;44.98;101510.88;5051533;28;20028;-67
2023/05/11 03:54:57;;;;;;;12.82;5.20;;;;;;;23.52;45.23;101509.66;5062682;28;20086;-67
2023/05/11 03:57:26;;;;;;;13.43;5.25;;;;;;;23.30;45.60;101509.94;5071846;28;20029;-67
2023/05/11 03:59:51;;;;;;;10.05;4.43;;;;;;;23.15;46.10;101506.28;5071592;28;20067;-67
2023/05/11 04:02:16;;;;;;;9.05;4.13;;;;;;;23.35;46.10;101507.00;5064332;28;20489;-67
2023/05/11 04:04:42;;;;;;;11.13;4.45;;;;;;;23.20;45.90;101506.91;5052162;28;20082;-67
2023/05/11 04:07:07;;;;;;;10.77;4.80;;;;;;;23.88;44.27;101508.59;5050703;28;20112;-68
2023/05/11 04:09:32;;;;;;;13.88;4.30;;;;;;;23.90;44.26;101505.00;5053283;28;20515;-67
2023/05/11 04:11:58;;;;;;;12.00;4.50;;;;;;;23.78;44.06;101509.16;5051516;28;20025;-67
2023/05/11 04:14:23;;;;;;;10.70;4.28;;;;;;;23.62;45.10;101503.81;5050646;28;20317;-67
2023/05/11 04:16:49;;;;;;;8.68;4.55;;;;;;;23.60;45.01;101506.53;5051625;28;20067;-67
2023/05/11 04:19:15;;;;;;;9.95;4.18;;;;;;;23.80;44.85;101512.63;5051227;28;20058;-67
2023/05/11 04:21:41;;;;;;;9.20;4.55;;;;;;;23.59;45.50;101515.53;5051139;28;20057;-70
2023/05/11 04:24:06;;;;;;;9.38;4.28;;;;;;;23.62;45.02;101515.34;5071317;28;20452;-69
2023/05/11 04:26:32;;;;;;;13.27;5.07;;;;;;;23.37;46.09;101521.16;5071030;28;20012;-67
2023/05/11 04:28:57;;;;;;;8.00;3.88;;;;;;;23.81;44.91;101528.53;5070577;28;20523;-66
2023/05/11 04:31:22;;;;;;;8.23;4.05;;;;;;;23.57;45.64;101524.53;5070859;28;20071;-67
2023/05/11 04:33:48;;;;;;;9.10;4.30;;;;;;;23.72;45.21;101527.22;5054519;28;20161;-68
2023/05/11 04:36:13;;;;;;;7.15;3.53;;;;;;;23.82;45.11;101527.59;5068947;28;20031;-67
2023/05/11 04:38:38;;;;;;;8.63;4.70;;;;;;;23.65;45.39;101525.00;5071535;28;20028;-68
2023/05/11 04:41:07;;;;;;;9.65;3.65;;;;;;;24.26;43.90;101525.22;5072505;28;20021;-67
2023/05/11 04:43:34;;;;;;;7.88;3.75;;;;;;;23.81;45.42;101525.88;5057356;28;20053;-67
2023/05/11 04:45:59;;;;;;;7.63;3.80;;;;;;;23.65;45.82;101528.50;5051015;28;20500;-67
2023/05/11 04:48:25;;;;;;;12.95;4.35;;;;;;;23.63;45.39;101526.88;5063235;28;20031;-67
2023/05/11 04:50:52;;;;;;;7.53;3.67;;;;;;;23.66;45.20;101527.56;5070289;28;20021;-67
2023/05/11 04:53:17;;;;;;;8.00;3.72;;;;;;;24.01;45.50;101529.28;5069341;28;20085;-67
2023/05/11 04:55:43;;;;;;;8.27;4.25;;;;;;;24.05;44.82;101534.34;5050070;28;20088;-67
2023/05/11 04:58:08;;;;;;;8.43;3.60;;;;;;;24.39;44.53;101544.94;5050339;28;20383;-67
2023/05/11 05:00:35;;;;;;;14.02;4.55;;;;;;;23.30;45.87;101535.72;5050854;28;20028;-67
2023/05/11 05:03:00;;;;;;;9.70;3.88;;;;;;;23.40;45.95;101542.31;5049497;28;20033;-67
2023/05/11 05:05:26;;;;;;;10.93;4.68;;;;;;;23.86;45.97;101539.84;5050565;28;20025;-67
2023/05/11 05:07:51;;;;;;;11.68;4.22;;;;;;;24.25;43.90;101547.53;5050606;28;20542;-67
2023/05/11 05:10:16;;;;;;;8.35;4.22;;;;;;;23.64;45.60;101539.28;5048951;28;20020;-67
2023/05/11 05:12:42;;;;;;;8.77;4.53;;;;;;;23.91;46.04;101541.44;5054729;28;20028;-67
2023/05/11 05:15:08;;;;;;;11.57;4.57;;;;;;;23.59;46.49;101544.88;5070273;28;20059;-67
2023/05/11 05:17:33;;;;;;;10.93;4.45;;;;;;;23.83;46.19;101556.00;5069831;28;20064;-67
2023/05/11 05:19:59;;;;;;;10.27;4.32;;;;;;;23.99;45.10;101549.88;5070329;28;20478;-67
2023/05/11 05:22:25;;;;;;;12.48;5.57;;;;;;;23.60;45.16;101548.38;5068570;28;20040;-68
2023/05/11 05:24:50;;;;;;;9.05;3.58;;;;;;;23.78;45.06;101562.53;5070643;28;20492;-67
2023/05/11 05:27:15;;;;;;;13.10;5.00;;;;;;;24.59;44.05;101558.97;5069836;28;20100;-68
2023/05/11 05:29:41;;;;;;;10.13;4.20;;;;;;;24.69;43.45;101562.88;5070141;28;20105;-67
2023/05/11 05:32:06;;;;;;;12.20;3.90;;;;;;;24.19;44.40;101568.31;5069267;28;20522;-67
2023/05/11 05:34:32;;;;;;;11.05;4.78;;;;;;;24.29;43.90;101565.09;5054753;28;20446;-67
2023/05/11 05:36:57;;;;;;;9.10;4.00;;;;;;;23.98;44.56;101574.84;5067893;28;20374;-68
2023/05/11 05:39:22;;;;;;;9.88;4.72;;;;;;;23.72;43.87;101574.41;5069174;28;20024;-67
2023/05/11 05:41:48;;;;;;;11.45;3.92;;;;;;;24.19;43.64;101576.31;5070514;28;20555;-67
2023/05/11 05:44:13;;;;;;;7.72;4.07;;;;;;;24.48;42.48;101579.16;5069522;28;20025;-67
2023/05/11 05:46:38;;;;;;;11.07;4.43;;;;;;;23.95;44.62;101575.00;5070576;28;20029;-67
2023/05/11 05:49:05;;;;;;;8.95;4.00;;;;;;;24.19;43.65;101573.66;5067581;28;20035;-67
2023/05/11 05:51:31;;;;;;;10.32;4.40;;;;;;;23.83;44.44;101577.34;5068569;28;20056;-67
2023/05/11 05:53:57;;;;;;;9.07;4.60;;;;;;;24.02;43.89;101587.06;5069106;28;20127;-68
2023/05/11 05:56:22;;;;;;;8.95;3.97;;;;;;;24.19;43.19;101584.34;5068053;28;20381;-68
2023/05/11 05:58:47;;;;;;;9.52;3.78;;;;;;;23.86;44.19;101582.53;5070693;28;20025;-67
2023/05/11 06:01:13;;;;;;;9.18;4.70;;;;;;;24.07;43.67;101584.13;5064577;28;20559;-68
2023/05/11 06:03:38;;;;;;;9.45;5.00;;;;;;;23.74;44.57;101582.31;5069676;28;20671;-67
2023/05/11 06:06:06;;;;;;;10.02;4.13;;;;;;;23.57;44.96;101586.75;5069932;28;20485;-68
2023/05/11 06:08:32;;;;;;;10.05;4.47;;;;;;;24.44;43.30;101587.41;5063423;28;20052;-67
2023/05/11 06:10:58;;;;;;;9.93;4.45;;;;;;;23.42;44.97;101587.56;5056557;28;20516;-67
2023/05/11 06:13:23;;;;;;;10.60;5.28;;;;;;;24.18;43.72;101585.28;5048220;28;20309;-67
2023/05/11 06:15:49;;;;;;;8.40;4.35;;;;;;;24.45;43.53;101589.16;5049279;28;20381;-68
2023/05/11 06:18:14;;;;;;;10.85;3.90;;;;;;;24.58;43.82;101589.31;5050015;28;20029;-67
2023/05/11 06:20:39;;;;;;;9.82;4.13;;;;;;;23.96;44.10;101593.63;5053815;28;20039;-67
2023/05/11 06:23:05;;;;;;;12.73;5.15;;;;;;;24.73;42.41;101593.81;5051218;28;20469;-66
2023/05/11 06:25:33;;;;;;;10.82;5.03;;;;;;;25.07;42.31;101602.50;5050960;28;20445;-67
2023/05/11 06:27:59;;;;;;;12.55;5.35;;;;;;;25.16;41.77;101593.94;5049663;28;20066;-68
2023/05/11 06:30:24;;;;;;;11.40;5.00;;;;;;;24.77;42.73;101600.72;5051497;28;20493;-67
2023/05/11 06:32:50;;;;;;;12.57;4.45;;;;;;;23.80;44.85;101606.03;5069249;28;20016;-68
2023/05/11 06:35:15;;;;;;;11.25;4.18;;;;;;;25.04;42.15;101603.56;5053141;28;20032;-67
2023/05/11 06:37:41;;;;;;;9.50;5.28;;;;;;;24.97;42.35;101601.34;5050240;28;20099;-68
2023/05/11 06:40:07;;;;;;;10.15;4.82;;;;;;;24.97;42.11;101601.34;5048631;28;20516;-67
2023/05/11 06:42:33;;;;;;;11.30;5.03;;;;;;;25.33;41.60;101608.16;5062774;28;20024;-68
2023/05/11 06:44:58;;;;;;;11.68;4.68;;;;;;;24.75;42.59;101607.09;5060939;28;20536;-68
2023/05/11 06:47:23;;;;;;;9.10;4.13;;;;;;;24.54;42.58;101605.53;5065392;28;20335;-67
2023/05/11 06:49:49;;;;;;;10.25;4.72;;;;;;;24.35;44.27;101604.84;5061222;28;20036;-67
2023/05/11 06:52:14;;;;;;;11.57;4.68;;;;;;;24.62;43.64;101605.13;5054438;28;20064;-67
2023/05/11 06:54:39;;;;;;;10.02;4.38;;;;;;;24.90;42.39;101617.72;5048402;28;20068;-67
2023/05/11 06:57:05;;;;;;;9.07;4.13;;;;;;;25.49;41.72;101608.94;5049455;28;20033;-68
2023/05/11 06:59:31;;;;;;;9.20;4.93;;;;;;;24.65;42.45;101612.09;5048719;28;20624;-67
2023/05/11 07:01:57;;;;;;;13.13;5.07;;;;;;;25.08;42.68;101614.94;5048504;28;20048;-67
2023/05/11 07:04:22;;;;;;;10.75;5.20;;;;;;;26.09;40.97;101607.09;5051721;28;20020;-68
2023/05/11 07:06:48;;;;;;;11.60;4.90;;;;;;;25.76;40.91;101613.56;5063267;28;20743;-67
2023/05/11 07:09:14;;;;;;;12.05;5.35;;;;;;;25.50;42.27;101616.03;5069091;28;20054;-68
2023/05/11 07:11:40;;;;;;;10.95;4.65;;;;;;;25.83;41.09;101609.56;5067403;28;20025;-68
2023/05/11 07:14:07;;;;;;;10.20;5.10;;;;;;;26.55;40.34;101614.81;5068105;28;20028;-67
2023/05/11 07:16:36;;;;;;;11.15;4.90;;;;;;;25.38;42.01;101616.78;5067709;28;20093;-67
2023/05/11 07:19:02;;;;;;;10.70;5.82;;;;;;;25.05;42.94;101621.31;5067868;28;20497;-68
2023/05/11 07:21:28;;;;;;;15.07;6.25;;;;;;;25.77;41.00;101612.59;5067955;28;20025;-67
2023/05/11 07:23:53;;;;;;;10.77;4.72;;;;;;;26.34;40.04;101616.22;5068822;28;20033;-67
2023/05/11 07:26:18;;;;;;;13.88;5.65;;;;;;;26.02;41.35;101617.31;5067824;28;20119;-67
2023/05/11 07:28:44;;;;;;;14.65;5.82;;;;;;;25.53;41.05;101621.19;5067535;28;20031;-67
2023/05/11 07:31:09;;;;;;;14.13;5.90;;;;;;;26.41;39.84;101620.22;5066520;28;20052;-67
2023/05/11 07:33:37;;;;;;;15.85;6.40;;;;;;;26.82;39.74;101616.69;5065483;28;20480;-67
2023/05/11 07:36:02;;;;;;;15.45;5.80;;;;;;;27.03;39.44;101614.38;5053011;28;20040;-68
2023/05/11 07:38:27;;;;;;;14.43;6.68;;;;;;;27.25;38.30;101619.13;5046648;28;20025;-67
2023/05/11 07:40:53;;;;;;;12.82;6.53;;;;;;;27.35;37.82;101623.88;5052246;28;20025;-67
2023/05/11 07:43:18;;;;;;;13.60;6.25;;;;;;;26.67;39.23;101618.53;5065289;28;20472;-67
2023/05/11 07:45:44;;;;;;;14.20;6.63;;;;;;;27.11;38.28;101621.91;5068783;28;20034;-67
2023/05/11 07:48:09;;;;;;;15.25;6.28;;;;;;;26.89;37.35;101617.97;5067624;28;20111;-68
2023/05/11 07:50:35;;;;;;;12.45;6.55;;;;;;;26.65;39.50;101619.56;5064505;28;20039;-67
2023/05/11 07:53:00;;;;;;;11.90;6.43;;;;;;;26.49;38.93;101615.22;5049446;28;20033;-67
2023/05/11 07:55:28;;;;;;;12.23;5.82;;;;;;;26.43;39.06;101626.34;5047768;28;20049;-67
2023/05/11 07:57:54;;;;;;;13.98;6.40;;;;;;;26.05;39.33;101627.00;5047929;28;20480;-67
2023/05/11 08:00:20;;;;;;;17.02;7.13;;;;;;;26.78;38.18;101625.88;5047046;28;20025;-67
2023/05/11 08:02:46;;;;;;;13.07;5.82;;;;;;;26.69;38.44;101616.59;5051648;28;20021;-68
2023/05/11 08:05:12;;;;;;;14.95;6.93;;;;;;;27.64;36.98;101623.69;5053123;28;20545;-68
2023/05/11 08:07:38;;;;;;;14.55;6.22;;;;;;;26.12;38.27;101624.75;5056154;28;20028;-67
2023/05/11 08:10:07;;;;;;;13.75;5.45;;;;;;;27.72;37.46;101621.34;5057015;28;20392;-67
2023/05/11 08:12:32;;;;;;;13.93;6.68;;;;;;;27.75;36.94;101622.00;5051746;28;20388;-67
2023/05/11 08:14:58;;;;;;;11.95;5.45;;;;;;;26.85;37.38;101619.16;5059269;28;20024;-68
2023/05/11 08:17:23;;;;;;;10.82;5.93;;;;;;;27.77;36.26;101624.56;5064699;28;20544;-68
2023/05/11 08:19:50;;;;;;;10.25;5.32;;;;;;;28.84;34.61;101625.81;5058628;28;20110;-68
2023/05/11 08:22:15;;;;;;;13.60;6.03;;;;;;;27.98;34.62;101629.38;5052751;28;20546;-67
2023/05/11 08:24:40;;;;;;;8.65;4.70;;;;;;;28.14;33.52;101621.97;5073064;28;20028;-67
2023/05/11 08:27:06;;;;;;;13.48;5.50;;;;;;;27.21;36.04;101622.97;5082524;28;20013;-67
2023/05/11 08:29:31;;;;;;;8.68;4.85;;;;;;;27.05;36.25;101635.72;5060625;28;20035;-66
2023/05/11 08:31:57;;;;;;;11.30;5.47;;;;;;;27.15;36.76;101634.16;5069791;28;20028;-67
2023/05/11 08:34:23;;;;;;;12.32;5.10;;;;;;;27.35;36.16;101626.56;5059167;28;20364;-66
2023/05/11 08:36:48;;;;;;;11.13;5.45;;;;;;;27.56;35.66;101627.78;5056108;28;20036;-67
2023/05/11 08:39:14;;;;;;;12.45;5.63;;;;;;;26.84;37.67;101630.81;5067980;28;20024;-67
2023/05/11 08:41:39;;;;;;;13.15;5.50;;;;;;;27.52;35.84;101625.41;5075109;28;20429;-67
2023/05/11 08:44:06;;;;;;;12.40;6.03;;;;;;;26.76;36.76;101627.78;5066831;28;20032;-69
2023/05/11 08:46:35;;;;;;;13.73;5.57;;;;;;;26.68;37.39;101630.09;5069359;28;20480;-67
2023/05/11 08:49:00;;;;;;;10.98;5.82;;;;;;;27.47;36.17;101625.75;5062214;28;20388;-68
2023/05/11 08:51:27;;;;;;;8.90;5.43;;;;;;;26.49;37.18;101620.59;5064750;28;20031;-67
2023/05/11 08:53:53;;;;;;;9.40;5.43;;;;;;;27.08;36.82;101627.50;5059203;28;20124;-66
2023/05/11 08:56:20;;;;;;;7.68;4.88;;;;;;;27.73;35.95;101623.91;5081292;28;20033;-67
2023/05/11 08:58:46;;;;;;;8.60;4.97;;;;;;;28.24;34.62;101625.69;5059876;28;20083;-66
2023/05/11 09:01:13;;;;;;;10.50;4.80;;;;;;;28.18;34.84;101626.16;5053603;28;20492;-67
2023/05/11 09:03:40;;;;;;;13.02;5.88;;;;;;;28.18;34.39;101628.84;5062698;28;20078;-67
2023/05/11 09:06:07;;;;;;;9.60;5.20;;;;;;;27.42;35.66;101627.88;5068756;28;20365;-66
2023/05/11 09:08:37;;;;;;;9.82;5.22;;;;;;;27.06;36.79;101627.56;5070792;28;20052;-67
2023/05/11 09:11:06;;;;;;;10.60;5.80;;;;;;;27.88;35.56;101630.03;5085326;28;20035;-68
2023/05/11 09:13:32;;;;;;;11.07;5.35;;;;;;;26.72;36.59;101627.16;5080343;28;20111;-67
2023/05/11 09:15:58;;;;;;;11.25;5.78;;;;;;;27.42;35.98;101628.75;5072319;28;20103;-67
2023/05/11 09:18:23;;;;;;;14.73;6.10;;;;;;;27.97;35.79;101630.34;5055288;28;20540;-67
2023/05/11 09:20:50;;;;;;;14.30;7.18;;;;;;;27.11;37.43;101629.94;5076728;28;20395;-67
2023/05/11 09:23:16;;;;;;;17.77;7.18;;;;;;;27.02;38.40;101635.94;5089497;28;20437;-68
2023/05/11 09:25:42;;;;;;;12.35;6.75;;;;;;;25.49;39.24;101635.72;5090453;28;20024;-67
2023/05/11 09:28:11;;;;;;;12.32;6.85;;;;;;;26.39;39.16;101635.53;5084674;28;20082;-67
2023/05/11 09:30:37;;;;;;;15.80;6.47;;;;;;;27.81;35.92;101630.56;5081667;28;20020;-67
2023/05/11 09:33:02;;;;;;;15.13;6.78;;;;;;;28.66;34.83;101621.81;5089876;28;20365;-67
2023/05/11 09:35:32;;;;;;;14.18;6.85;;;;;;;27.66;37.00;101632.53;5089418;28;20429;-67
2023/05/11 09:38:11;;;;;;;13.90;7.38;;;;;;;27.63;37.45;101632.72;5086901;28;20123;-67
2023/05/11 09:40:43;;;;;;;14.75;7.60;;;;;;;27.49;37.35;101631.88;5080510;28;20633;-67
2023/05/11 09:43:22;;;;;;;13.73;7.90;;;;;;;27.82;36.68;101630.47;5089817;28;20020;-67
2023/05/11 09:45:49;;;;;;;14.02;7.35;;;;;;;27.54;36.85;101642.28;5089034;28;20042;-68
2023/05/11 09:48:20;;;;;;;15.85;7.65;;;;;;;27.45;36.49;101634.84;5088016;28;20062;-67
2023/05/11 09:50:51;;;;;;;10.57;6.50;;;;;;;27.76;36.66;101638.94;5071859;28;20032;-67
2023/05/11 09:53:17;;;;;;;11.23;5.72;;;;;;;27.46;36.51;101632.06;5088816;28;20266;-67
2023/05/11 09:55:54;;;;;;;15.85;5.53;;;;;;;27.12;37.50;101633.47;5089780;28;20051;-67
2023/05/11 09:58:19;;;;;;;14.98;6.55;;;;;;;27.73;36.32;101641.84;5086279;28;20024;-67
2023/05/11 10:00:51;;;;;;;10.90;5.82;;;;;;;26.94;38.00;101643.63;5064539;28;20025;-67
2023/05/11 10:03:17;;;;;;;11.80;6.20;;;;;;;27.24;37.73;101636.22;5069344;28;20440;-67
2023/05/11 10:05:56;;;;;;;12.35;5.78;;;;;;;26.76;37.65;101638.53;5078495;28;20105;-67
2023/05/11 10:08:33;;;;;;;11.75;6.50;;;;;;;26.20;39.58;101633.16;5089544;28;20479;-67
2023/05/11 10:11:00;;;;;;;11.48;5.75;;;;;;;26.65;38.24;101641.03;5090894;28;20455;-68
2023/05/11 10:13:26;;;;;;;10.43;6.22;;;;;;;27.62;36.59;101642.59;5088715;28;20069;-67
2023/05/11 10:15:53;;;;;;;10.07;5.57;;;;;;;27.23;37.83;101647.03;5072748;28;20036;-68
2023/05/11 10:18:19;;;;;;;10.57;5.50;;;;;;;26.19;39.54;101639.50;5088918;28;20020;-67
2023/05/11 10:20:45;;;;;;;8.88;5.60;;;;;;;27.18;37.58;101639.31;5090025;28;20514;-68
2023/05/11 10:23:11;;;;;;;12.90;5.20;;;;;;;26.95;38.00;101637.31;5088742;28;20031;-67
2023/05/11 10:25:37;;;;;;;9.40;5.35;;;;;;;27.39;37.46;101644.19;5089643;28;20024;-67
2023/05/11 10:28:07;;;;;;;10.35;5.75;;;;;;;25.91;39.98;101649.22;5088604;28;20016;-68
2023/05/11 10:30:33;;;;;;;9.43;5.22;;;;;;;26.53;38.32;101642.66;5070995;28;20024;-68
2023/05/11 10:33:00;;;;;;;9.57;4.70;;;;;;;26.51;38.35;101640.09;5089168;28;20023;-67
2023/05/11 10:35:26;;;;;;;9.70;5.05;;;;;;;27.00;38.52;101645.91;5087998;28;20028;-68
2023/05/11 10:37:52;;;;;;;10.23;5.32;;;;;;;26.27;37.76;101641.69;5090301;28;20069;-68
2023/05/11 10:40:18;;;;;;;9.32;6.13;;;;;;;27.11;37.83;101640.69;5069046;28;20020;-68
2023/05/11 10:43:02;;;;;;;10.15;6.00;;;;;;;26.55;38.57;101649.66;5089124;28;20059;-68
2023/05/11 10:45:46;;;;;;;10.38;5.60;;;;;;;26.58;39.03;101648.59;5079211;28;20035;-68
2023/05/11 10:48:30;;;;;;;11.02;5.45;;;;;;;27.19;37.87;101638.34;5067547;28;20483;-67
2023/05/11 10:51:15;;;;;;;12.43;6.38;;;;;;;27.62;36.74;101645.28;5076418;28;20471;-68
2023/05/11 10:53:57;;;;;;;12.55;6.82;;;;;;;26.43;38.16;101653.13;5083369;28;20126;-68
2023/05/11 10:56:38;;;;;;;;;;;;;;;26.35;39.50;101647.41;5072416;28;20074;-68
2023/05/11 10:59:37;;;;;;;12.25;5.47;;;;;;;26.41;40.06;101644.34;5085374;28;19920;-67
2023/05/11 11:02:06;;;;;;;9.65;5.07;;;;;;;26.82;39.51;101643.50;5074629;28;20033;-67
2023/05/11 11:04:50;;;;;;;11.15;5.45;;;;;;;27.07;38.30;101648.06;5065579;28;20237;-67
2023/05/11 11:07:18;;;;;;;9.75;4.53;;;;;;;27.38;38.36;101639.78;5055203;28;20082;-67
2023/05/11 11:09:58;;;;;;;7.70;4.47;;;;;;;27.01;39.50;101647.63;5047227;28;20020;-67
2023/05/11 11:12:26;;;;;;;10.32;4.95;;;;;;;26.26;40.29;101645.34;5055250;28;20434;-67
2023/05/11 11:14:54;;;;;;;9.95;4.65;;;;;;;27.28;39.17;101636.00;5051884;28;20428;-67
2023/05/11 11:17:19;;;;;;;10.70;5.28;;;;;;;26.39;41.30;101640.88;5057685;28;20059;-67
2023/05/11 11:19:45;;;;;;;7.55;4.50;;;;;;;26.91;40.35;101637.53;5064858;28;20024;-66
2023/05/11 11:22:40;;;;;;;7.25;4.25;;;;;;;27.88;39.81;101640.78;5052514;28;20083;-66